Update 03.02. : Die Wetterhütte (Außentemp. Fühler) wird jetzt mittels Solarpanel und Lüfter bei Sonnenschein aktiv belüftet.
Update 19.07. : Eine eigene Kamera für das Wetterbild installiert (HiKam A7 verwaltet vom Synology NAS)
Besuchen Sie den Menüpunkt "Almanach / History" hier gibt es viele interessante Statistiken aus den Daten meiner Wetterstation (seit 2011)

Rindlberg West Mehr Informationen Rindlberg West


Stuetzi - Rindlberg Ost Mehr Informationen Stuetzi - Rindlberg Ost


Regenradar Mehr Informationen rain snow radar


Sie finden meine Wetter-Infos auch auf:

Weather Underground

AWEKAS



Select another period ( hide this area )

Einheiten Zeitraum Custom range Directly to
metrisch Englisch Beide
Tägliche Wöchentliche Monatliche Jährlich
use both date-selectors for a custom range
previous Tag
With this date

WeatherUnderground graphs for this period ( click here )


Tägliche Zusammenfassung für Dienstag 19 Februar 2019
Zeit Temp. ( °C ) Dew pt. ( °C ) Wind ( km/h ) von Windböen ( km/h ) Luftdruck ( hPa ) Humid.( % ) Rainrate ( cm )
Hoch5,8 -2,0 17,7 WSW ( 219/832 ) 22,5 1018,8 75 -
Durchchnittswerte-0,9 -6,5 5,6 Windstille #33/148 9,0 1016,6 66 -
Tief-4,7 -10,8 -   0,0 1014,8 56 -
Tägliche Tabular details for Dienstag 19 Februar 2019
Zeit Temp. ( °C ) Dew pt. ( °C ) Wind ( km/h ) von Windböen ( km/h ) Luftdruck ( hPa ) Humid.( % ) Rainrate ( cm )
00:04 -3,4 -9,8 4,8 Norden 6,4 1015,8 61 -
00:09 -3,4 -9,8 4,8 Norden 6,4 1015,8 61 -
00:14 -3,6 -10,0 4,8 NNO 4,8 1015,8 61 -
00:19 -3,7 -10,1   Windstille 4,8 1015,8 61 -
00:24 -3,8 -10,2 6,4 NNO 4,8 1015,8 61 -
00:29 -3,8 -10,2 4,8 NNO 6,4 1015,8 61 -
00:34 -3,8 -10,2   Windstille 6,4 1015,8 61 -
00:39 -3,8 -10,2 6,4 NNO 6,4 1015,8 61 -
00:44 -3,7 -10,1   Windstille 6,4 1015,8 61 -
00:49 -3,8 -10,2 4,8 NNO 6,4 1015,8 61 -
00:54 -4,1 -10,5   Windstille 6,4 1015,8 61 -
00:59 -4,2 -10,6   Windstille 6,4 1015,8 61 -
01:04 -4,3 -10,7   Windstille 6,4 1015,8 61 -
01:09 -4,3 -10,7   Windstille 4,8 1015,8 61 -
01:14 -4,4 -10,6   Windstille   1015,8 62 -
01:19 -4,5 -10,7 6,4 NNO   1015,8 62 -
01:24 -4,5 -10,7 4,8 NNO 6,4 1015,8 62 -
01:29 -4,6 -10,8 6,4 NNO 6,4 1015,8 62 -
01:34 -4,6 -10,8   Windstille 6,4 1015,8 62 -
01:39 -4,5 -10,5 4,8 NNO 6,4 1015,8 63 -
01:44 -4,6 -10,6 4,8 NNO 6,4 1015,8 63 -
01:49 -4,7 -10,7   Windstille 6,4 1015,8 63 -
01:54 -4,7 -10,7   Windstille 6,4 1015,8 63 -
01:59 -4,6 -10,6   Windstille 4,8 1015,8 63 -
02:04 -4,5 -10,3   Windstille 4,8 1015,8 64 -
02:09 -4,4 -10,2   Windstille   1015,8 64 -
02:14 -4,5 -10,3   Windstille   1015,8 64 -
02:19 -4,4 -10,0   Windstille   1015,8 65 -
02:24 -4,4 -10,0   Windstille   1015,8 65 -
02:29 -4,4 -10,0   Windstille   1015,8 65 -
02:34 -4,4 -10,0 4,8 NNO   1015,8 65 -
02:39 -4,3 -9,9 4,8 NNO 6,4 1015,8 65 -
02:44 -4,1 -9,5 4,8 NNO 6,4 1015,8 66 -
02:49 -4,0 -9,4 4,8 NNO 6,4 1015,8 66 -
02:54 -3,8 -9,0 6,4 Norden 6,4 1015,8 67 -
02:59 -3,6 -8,8 4,8 Norden 6,4 1015,8 67 -
03:04 -3,5 -8,6 6,4 Norden 6,4 1015,8 68 -
03:09 -3,4 -8,5 6,4 NW 6,4 1015,8 68 -
03:14 -3,2 -8,3 9,7 NNW 6,4 1015,8 68 -
03:19 -3,1 -8,2 4,8 Norden 6,4 1015,8 68 -
03:24 -3,0 -8,1 6,4 Norden 9,7 1015,8 68 -
03:29 -3,0 -8,1 6,4 Norden 9,7 1015,8 68 -
03:34 -3,1 -8,2 6,4 Norden 6,4 1015,8 68 -
03:39 -3,0 -8,1 4,8 NNW 6,4 1015,8 68 -
03:44 -2,9 -8,0 6,4 NNW 6,4 1015,8 68 -
03:49 -2,9 -8,0 4,8 NNW 6,4 1015,8 68 -
03:54 -3,0 -8,1 4,8 NNW 6,4 1014,8 68 -
03:59 -3,2 -8,5 4,8 NNW 6,4 1014,8 67 -
04:04 -3,3 -8,5 6,4 NNW 6,4 1014,8 67 -
04:09 -3,4 -8,6   Windstille 6,4 1015,8 67 -
04:14 -3,5 -8,7 3,2 NNW 6,4 1015,8 67 -
04:19 -3,6 -8,8   Windstille 6,4 1015,8 67 -
04:24 -3,8 -9,2   Windstille 6,4 1015,8 66 -
04:29 -3,7 -8,9   Windstille 6,4 1015,8 67 -
04:34 -3,8 -9,0   Windstille 6,4 1015,8 67 -
04:39 -4,0 -9,2   Windstille   1015,8 67 -
04:44 -4,0 -9,2 6,4 NNW   1015,8 67 -
04:49 -3,8 -8,8 6,4 NNW 6,4 1015,8 68 -
04:54 -4,0 -9,0 8,0 Norden 6,4 1015,8 68 -
04:59 -3,8 -8,7 4,8 Norden 9,7 1015,8 69 -
05:04 -3,9 -8,7 4,8 Norden 9,7 1015,8 69 -
05:09 -3,9 -8,6   Windstille 9,7 1015,8 70 -
05:14 -3,9 -8,6 6,4 Norden 6,4 1015,8 70 -
05:19 -3,7 -8,2 4,8 Norden 6,4 1015,8 71 -
05:24 -3,5 -7,6 6,4 Norden 6,4 1015,8 73 -
05:29 -3,3 -7,4 4,8 NW 6,4 1015,8 73 -
05:34 -3,2 -7,3 4,8 NW 8,0 1015,8 73 -
05:39 -3,1 -7,1 6,4 NW 8,0 1015,8 74 -
05:44 -2,8 -6,8 4,8 NW 8,0 1015,8 74 -
05:49 -2,5 -6,3 4,8 Norden 8,0 1015,8 75 -
05:54 -2,5 -6,3 6,4 Norden 8,0 1015,8 75 -
05:59 -2,3 -6,1   Windstille 8,0 1015,8 75 -
06:04 -2,3 -6,1   Windstille 6,4 1015,8 75 -
06:09 -2,2 -6,0 4,8 Norden 6,4 1015,8 75 -
06:14 -2,1 -5,9 6,4 NNW 6,4 1015,8 75 -
06:19 -2,1 -5,9 6,4 NNW 8,0 1015,8 75 -
06:24 -2,1 -5,9 6,4 NNW 8,0 1016,8 75 -
06:29 -2,0 -5,8 8,0 NNW 8,0 1016,8 75 -
06:34 -2,1 -6,1 4,8 NNW 8,0 1016,8 74 -
06:39 -2,2 -6,2 6,4 NNW 8,0 1016,8 74 -
06:44 -2,2 -6,2 6,4 NNW 8,0 1016,8 74 -
06:49 -2,1 -5,9 6,4 WNW 9,7 1016,8 75 -
06:54 -1,9 -5,7   Windstille 9,7 1016,8 75 -
06:59 -1,8 -5,6   Windstille 9,7 1016,8 75 -
07:04 -1,7 -5,5   Windstille 8,0 1016,8 75 -
07:09 -1,6 -5,4 4,8 WNW 6,4 1016,8 75 -
07:14 -1,6 -5,4   Windstille 6,4 1016,8 75 -
07:19 -1,7 -5,7 6,4 WNW 6,4 1016,8 74 -
07:24 -1,6 -5,6 4,8 NNW 6,4 1016,8 74 -
07:29 -1,4 -5,4 8,0 NNO 6,4 1016,8 74 -
07:34 -1,1 -5,1 6,4 NNW 8,0 1016,8 74 -
07:39 -0,9 -5,1 4,8 NW 9,7 1016,8 73 -
07:44 -0,9 -5,3 3,2 NNW 9,7 1016,8 72 -
07:49 -1,0 -5,4 4,8 NNW 9,7 1016,8 72 -
07:54 -1,0 -5,6   Windstille 8,0 1016,8 71 -
07:59 -1,1 -5,7 4,8 NNW 6,4 1016,8 71 -
08:04 -1,1 -5,7   Windstille 4,8 1016,8 71 -
08:09 -1,0 -5,4 4,8 Westen 6,4 1016,8 72 -
08:14 -0,9 -5,5 4,8 WSW 6,4 1016,8 71 -
08:19 -0,8 -5,4 4,8 WSW 8,0 1016,8 71 -
08:24 -0,7 -5,5 4,8 WSW 8,0 1016,8 70 -
08:29 -0,7 -5,5 4,8 Westen 8,0 1016,8 70 -
08:34 -0,6 -5,4 4,8 Westen 6,4 1016,8 70 -
08:39 -0,4 -5,2 4,8 Westen 6,4 1016,8 70 -
08:44 -0,2 -5,0 6,4 Westen 8,0 1016,8 70 -
08:49 0,0 -4,8 6,4 WNW 8,0 1016,8 70 -
08:54 0,2 -4,8 6,4 WNW 9,7 1017,8 69 -
08:59 0,3 -4,7 6,4 Westen 9,7 1017,8 69 -
09:04 0,6 -4,4 8,0 Westen 9,7 1017,8 69 -
09:09 0,9 -4,1 6,4 Westen 9,7 1017,8 69 -
09:14 1,2 -4,1 6,4 NNW 9,7 1017,8 68 -
09:19 1,6 -3,7 4,8 WNW 14,5 1017,8 68 -
09:24 2,0 -3,3 8,0 Westen 14,5 1016,8 68 -
09:29 2,4 -3,1 6,4 WSW 14,5 1016,8 67 -
09:34 2,7 -2,8 8,0 WSW 9,7 1016,8 67 -
09:39 3,1 -2,6 8,0 WSW 12,9 1017,8 66 -
09:44 3,4 -2,6 8,0 WSW 12,9 1017,8 65 -
09:49 3,8 -2,6 9,7 WSW 12,9 1017,8 63 -
09:54 4,0 -2,6 9,7 WSW 14,5 1017,8 62 -
09:59 4,1 -2,7 12,9 WNW 14,5 1017,8 61 -
10:04 4,3 -2,6 9,7 WSW 14,5 1017,8 61 -
10:09 4,4 -2,7 9,7 Westen 14,5 1017,8 60 -
10:14 4,6 -2,5 6,4 Westen 14,5 1017,8 60 -
10:19 4,7 -2,4 6,4 WSW 14,5 1017,8 60 -
10:24 4,9 -2,2 9,7 WSW 14,5 1017,8 60 -
10:29 5,2 -2,2 9,7 WSW 11,3 1017,8 59 -
10:34 5,3 -2,3 9,7 WSW 11,3 1017,8 58 -
10:39 5,5 -2,1 12,9 WSW 12,9 1017,8 58 -
10:44 5,5 -2,3 9,7 WSW 12,9 1017,8 57 -
10:49 5,4 -2,4 12,9 WSW 16,1 1017,8 57 -
10:54 5,3 -2,5 9,7 WSW 17,7 1017,8 57 -
10:59 5,3 -2,5 8,0 Westen 17,7 1017,8 57 -
11:04 5,3 -2,3 12,9 WSW 17,7 1017,8 58 -
11:09 5,4 -2,4 12,9 WSW 19,3 1018,8 57 -
11:14 5,3 -2,3 12,9 Westen 19,3 1018,8 58 -
11:19 5,3 -2,3 11,3 WNW 19,3 1018,8 58 -
11:24 5,2 -2,4 8,0 WNW 17,7 1018,8 58 -
11:29 5,4 -2,2 16,1 WSW 17,7 1018,8 58 -
11:34 5,5 -2,1 12,9 WNW 17,7 1018,8 58 -
11:39 5,4 -2,4 11,3 Westen 17,7 1018,8 57 -
11:44 5,4 -2,2 8,0 SW 20,9 1018,8 58 -
11:49 5,5 -2,1 12,9 WSW 20,9 1018,8 58 -
11:54 5,6 -2,0 16,1 Westen 20,9 1017,8 58 -
11:59 5,6 -2,3 12,9 Westen 17,7 1017,8 57 -
12:04 5,6 -2,3 12,9 SW 20,9 1017,8 57 -
12:09 5,7 -2,2 12,9 SW 20,9 1017,8 57 -
12:14 5,7 -2,2 9,7 WSW 20,9 1017,8 57 -
12:19 5,8 -2,3 17,7 WNW 22,5 1017,8 56 -
Tägliche Zusammenfassung für Dienstag 19 Februar 2019
Zeit Temp. ( °C ) Dew pt. ( °C ) Wind ( km/h ) von Windböen ( km/h ) Luftdruck ( hPa ) Humid.( % ) Rainrate ( cm )
Hoch5,8 -2,0 17,7 WSW ( 219/832 ) 22,5 1018,8 75 -
Durchchnittswerte-0,9 -6,5 5,6 Windstille #33/148 9,0 1016,6 66 -
Tief-4,7 -10,8 -   0,0 1014,8 56 -
Tägliche Tabular details for Dienstag 19 Februar 2019
Zeit Temp. ( °C ) Dew pt. ( °C ) Wind ( km/h ) von Windböen ( km/h ) Luftdruck ( hPa ) Humid.( % ) Rainrate ( cm )
00:04 -3,4 -9,8 4,8 Norden 6,4 1015,8 61 -
00:09 -3,4 -9,8 4,8 Norden 6,4 1015,8 61 -
00:14 -3,6 -10,0 4,8 NNO 4,8 1015,8 61 -
00:19 -3,7 -10,1   Windstille 4,8 1015,8 61 -
00:24 -3,8 -10,2 6,4 NNO 4,8 1015,8 61 -
00:29 -3,8 -10,2 4,8 NNO 6,4 1015,8 61 -
00:34 -3,8 -10,2   Windstille 6,4 1015,8 61 -
00:39 -3,8 -10,2 6,4 NNO 6,4 1015,8 61 -
00:44 -3,7 -10,1   Windstille 6,4 1015,8 61 -
00:49 -3,8 -10,2 4,8 NNO 6,4 1015,8 61 -
00:54 -4,1 -10,5   Windstille 6,4 1015,8 61 -
00:59 -4,2 -10,6   Windstille 6,4 1015,8 61 -
01:04 -4,3 -10,7   Windstille 6,4 1015,8 61 -
01:09 -4,3 -10,7   Windstille 4,8 1015,8 61 -
01:14 -4,4 -10,6   Windstille   1015,8 62 -
01:19 -4,5 -10,7 6,4 NNO   1015,8 62 -
01:24 -4,5 -10,7 4,8 NNO 6,4 1015,8 62 -
01:29 -4,6 -10,8 6,4 NNO 6,4 1015,8 62 -
01:34 -4,6 -10,8   Windstille 6,4 1015,8 62 -
01:39 -4,5 -10,5 4,8 NNO 6,4 1015,8 63 -
01:44 -4,6 -10,6 4,8 NNO 6,4 1015,8 63 -
01:49 -4,7 -10,7   Windstille 6,4 1015,8 63 -
01:54 -4,7 -10,7   Windstille 6,4 1015,8 63 -
01:59 -4,6 -10,6   Windstille 4,8 1015,8 63 -
02:04 -4,5 -10,3   Windstille 4,8 1015,8 64 -
02:09 -4,4 -10,2   Windstille   1015,8 64 -
02:14 -4,5 -10,3   Windstille   1015,8 64 -
02:19 -4,4 -10,0   Windstille   1015,8 65 -
02:24 -4,4 -10,0   Windstille   1015,8 65 -
02:29 -4,4 -10,0   Windstille   1015,8 65 -
02:34 -4,4 -10,0 4,8 NNO   1015,8 65 -
02:39 -4,3 -9,9 4,8 NNO 6,4 1015,8 65 -
02:44 -4,1 -9,5 4,8 NNO 6,4 1015,8 66 -
02:49 -4,0 -9,4 4,8 NNO 6,4 1015,8 66 -
02:54 -3,8 -9,0 6,4 Norden 6,4 1015,8 67 -
02:59 -3,6 -8,8 4,8 Norden 6,4 1015,8 67 -
03:04 -3,5 -8,6 6,4 Norden 6,4 1015,8 68 -
03:09 -3,4 -8,5 6,4 NW 6,4 1015,8 68 -
03:14 -3,2 -8,3 9,7 NNW 6,4 1015,8 68 -
03:19 -3,1 -8,2 4,8 Norden 6,4 1015,8 68 -
03:24 -3,0 -8,1 6,4 Norden 9,7 1015,8 68 -
03:29 -3,0 -8,1 6,4 Norden 9,7 1015,8 68 -
03:34 -3,1 -8,2 6,4 Norden 6,4 1015,8 68 -
03:39 -3,0 -8,1 4,8 NNW 6,4 1015,8 68 -
03:44 -2,9 -8,0 6,4 NNW 6,4 1015,8 68 -
03:49 -2,9 -8,0 4,8 NNW 6,4 1015,8 68 -
03:54 -3,0 -8,1 4,8 NNW 6,4 1014,8 68 -
03:59 -3,2 -8,5 4,8 NNW 6,4 1014,8 67 -
04:04 -3,3 -8,5 6,4 NNW 6,4 1014,8 67 -
04:09 -3,4 -8,6   Windstille 6,4 1015,8 67 -
04:14 -3,5 -8,7 3,2 NNW 6,4 1015,8 67 -
04:19 -3,6 -8,8   Windstille 6,4 1015,8 67 -
04:24 -3,8 -9,2   Windstille 6,4 1015,8 66 -
04:29 -3,7 -8,9   Windstille 6,4 1015,8 67 -
04:34 -3,8 -9,0   Windstille 6,4 1015,8 67 -
04:39 -4,0 -9,2   Windstille   1015,8 67 -
04:44 -4,0 -9,2 6,4 NNW   1015,8 67 -
04:49 -3,8 -8,8 6,4 NNW 6,4 1015,8 68 -
04:54 -4,0 -9,0 8,0 Norden 6,4 1015,8 68 -
04:59 -3,8 -8,7 4,8 Norden 9,7 1015,8 69 -
05:04 -3,9 -8,7 4,8 Norden 9,7 1015,8 69 -
05:09 -3,9 -8,6   Windstille 9,7 1015,8 70 -
05:14 -3,9 -8,6 6,4 Norden 6,4 1015,8 70 -
05:19 -3,7 -8,2 4,8 Norden 6,4 1015,8 71 -
05:24 -3,5 -7,6 6,4 Norden 6,4 1015,8 73 -
05:29 -3,3 -7,4 4,8 NW 6,4 1015,8 73 -
05:34 -3,2 -7,3 4,8 NW 8,0 1015,8 73 -
05:39 -3,1 -7,1 6,4 NW 8,0 1015,8 74 -
05:44 -2,8 -6,8 4,8 NW 8,0 1015,8 74 -
05:49 -2,5 -6,3 4,8 Norden 8,0 1015,8 75 -
05:54 -2,5 -6,3 6,4 Norden 8,0 1015,8 75 -
05:59 -2,3 -6,1   Windstille 8,0 1015,8 75 -
06:04 -2,3 -6,1   Windstille 6,4 1015,8 75 -
06:09 -2,2 -6,0 4,8 Norden 6,4 1015,8 75 -
06:14 -2,1 -5,9 6,4 NNW 6,4 1015,8 75 -
06:19 -2,1 -5,9 6,4 NNW 8,0 1015,8 75 -
06:24 -2,1 -5,9 6,4 NNW 8,0 1016,8 75 -
06:29 -2,0 -5,8 8,0 NNW 8,0 1016,8 75 -
06:34 -2,1 -6,1 4,8 NNW 8,0 1016,8 74 -
06:39 -2,2 -6,2 6,4 NNW 8,0 1016,8 74 -
06:44 -2,2 -6,2 6,4 NNW 8,0 1016,8 74 -
06:49 -2,1 -5,9 6,4 WNW 9,7 1016,8 75 -
06:54 -1,9 -5,7   Windstille 9,7 1016,8 75 -
06:59 -1,8 -5,6   Windstille 9,7 1016,8 75 -
07:04 -1,7 -5,5   Windstille 8,0 1016,8 75 -
07:09 -1,6 -5,4 4,8 WNW 6,4 1016,8 75 -
07:14 -1,6 -5,4   Windstille 6,4 1016,8 75 -
07:19 -1,7 -5,7 6,4 WNW 6,4 1016,8 74 -
07:24 -1,6 -5,6 4,8 NNW 6,4 1016,8 74 -
07:29 -1,4 -5,4 8,0 NNO 6,4 1016,8 74 -
07:34 -1,1 -5,1 6,4 NNW 8,0 1016,8 74 -
07:39 -0,9 -5,1 4,8 NW 9,7 1016,8 73 -
07:44 -0,9 -5,3 3,2 NNW 9,7 1016,8 72 -
07:49 -1,0 -5,4 4,8 NNW 9,7 1016,8 72 -
07:54 -1,0 -5,6   Windstille 8,0 1016,8 71 -
07:59 -1,1 -5,7 4,8 NNW 6,4 1016,8 71 -
08:04 -1,1 -5,7   Windstille 4,8 1016,8 71 -
08:09 -1,0 -5,4 4,8 Westen 6,4 1016,8 72 -
08:14 -0,9 -5,5 4,8 WSW 6,4 1016,8 71 -
08:19 -0,8 -5,4 4,8 WSW 8,0 1016,8 71 -
08:24 -0,7 -5,5 4,8 WSW 8,0 1016,8 70 -
08:29 -0,7 -5,5 4,8 Westen 8,0 1016,8 70 -
08:34 -0,6 -5,4 4,8 Westen 6,4 1016,8 70 -
08:39 -0,4 -5,2 4,8 Westen 6,4 1016,8 70 -
08:44 -0,2 -5,0 6,4 Westen 8,0 1016,8 70 -
08:49 0,0 -4,8 6,4 WNW 8,0 1016,8 70 -
08:54 0,2 -4,8 6,4 WNW 9,7 1017,8 69 -
08:59 0,3 -4,7 6,4 Westen 9,7 1017,8 69 -
09:04 0,6 -4,4 8,0 Westen 9,7 1017,8 69 -
09:09 0,9 -4,1 6,4 Westen 9,7 1017,8 69 -
09:14 1,2 -4,1 6,4 NNW 9,7 1017,8 68 -
09:19 1,6 -3,7 4,8 WNW 14,5 1017,8 68 -
09:24 2,0 -3,3 8,0 Westen 14,5 1016,8 68 -
09:29 2,4 -3,1 6,4 WSW 14,5 1016,8 67 -
09:34 2,7 -2,8 8,0 WSW 9,7 1016,8 67 -
09:39 3,1 -2,6 8,0 WSW 12,9 1017,8 66 -
09:44 3,4 -2,6 8,0 WSW 12,9 1017,8 65 -
09:49 3,8 -2,6 9,7 WSW 12,9 1017,8 63 -
09:54 4,0 -2,6 9,7 WSW 14,5 1017,8 62 -
09:59 4,1 -2,7 12,9 WNW 14,5 1017,8 61 -
10:04 4,3 -2,6 9,7 WSW 14,5 1017,8 61 -
10:09 4,4 -2,7 9,7 Westen 14,5 1017,8 60 -
10:14 4,6 -2,5 6,4 Westen 14,5 1017,8 60 -
10:19 4,7 -2,4 6,4 WSW 14,5 1017,8 60 -
10:24 4,9 -2,2 9,7 WSW 14,5 1017,8 60 -
10:29 5,2 -2,2 9,7 WSW 11,3 1017,8 59 -
10:34 5,3 -2,3 9,7 WSW 11,3 1017,8 58 -
10:39 5,5 -2,1 12,9 WSW 12,9 1017,8 58 -
10:44 5,5 -2,3 9,7 WSW 12,9 1017,8 57 -
10:49 5,4 -2,4 12,9 WSW 16,1 1017,8 57 -
10:54 5,3 -2,5 9,7 WSW 17,7 1017,8 57 -
10:59 5,3 -2,5 8,0 Westen 17,7 1017,8 57 -
11:04 5,3 -2,3 12,9 WSW 17,7 1017,8 58 -
11:09 5,4 -2,4 12,9 WSW 19,3 1018,8 57 -
11:14 5,3 -2,3 12,9 Westen 19,3 1018,8 58 -
11:19 5,3 -2,3 11,3 WNW 19,3 1018,8 58 -
11:24 5,2 -2,4 8,0 WNW 17,7 1018,8 58 -
11:29 5,4 -2,2 16,1 WSW 17,7 1018,8 58 -
11:34 5,5 -2,1 12,9 WNW 17,7 1018,8 58 -
11:39 5,4 -2,4 11,3 Westen 17,7 1018,8 57 -
11:44 5,4 -2,2 8,0 SW 20,9 1018,8 58 -
11:49 5,5 -2,1 12,9 WSW 20,9 1018,8 58 -
11:54 5,6 -2,0 16,1 Westen 20,9 1017,8 58 -
11:59 5,6 -2,3 12,9 Westen 17,7 1017,8 57 -
12:04 5,6 -2,3 12,9 SW 20,9 1017,8 57 -
12:09 5,7 -2,2 12,9 SW 20,9 1017,8 57 -
12:14 5,7 -2,2 9,7 WSW 20,9 1017,8 57 -
12:19 5,8 -2,3 17,7 WNW 22,5 1017,8 56 -

Download your copy of this data-set  here

Our weather-data as stored at Weather Underground. Script entwickelt von Jim McMurry. Angepasst für das Template von Leuven-Template.eu